Big Hole Natl Battlefield, Montana
Current Conditions -  °F | °C
As of 12:53 PM on Wednesday 28 Jan 2015 (Local Time) from KBTM Reporting Station
Clear Clear  
Wind Chill: 34°   Ceiling: Unl
Heat Index: 41°   Visibility: 10mi
Dew Point: 22°   Wind: 13mph
Humidity: 47%   Direction: 320°NW
Pressure: 30.25"   Gusts: NA
Location:  45.64°N, 113.65°W
Report Text: KBTM 281953Z AUTO 32011KT 10SM CLR 05/M06 A3025 RMK AO2 SLP260 T00501056
Loading
Personal Weather Stations






























Interactive Weather Map New forecast layout! Learn more

10-Day Weather Forecast

Advertisements
Track Severe Weather on mobile